Terminal Aerodrome Forecast
Issued by NWS

Home | Current Version | Previous Version | Text Only | Print | Product List | Glossary On
Versions: 1 2 3 4 5 6 7 8 9 10 11 12 13 14 15 16 17 18 19
000
FTUS43 KIND 211700
TAFBMG
TAF
KBMG 211720Z 2118/2218 14007KT P6SM SCT200
     FM220000 11004KT P6SM SCT200
     FM221000 12004KT P6SM BKN080
     FM221600 13010KT P6SM BKN020=

USA.gov is the U.S. government's official web portal to all federal, state and local government web resources and services.